createdAt,value
2018-08-22T00:00:59.920Z,0.00
2018-08-22T00:01:59.913Z,0.00
2018-08-22T00:02:59.923Z,0.00
2018-08-22T00:04:00.127Z,0.00
2018-08-22T00:04:59.925Z,0.00
2018-08-22T00:05:59.935Z,0.00
2018-08-22T00:06:59.931Z,0.00
2018-08-22T00:07:59.938Z,0.00
2018-08-22T00:08:59.983Z,0.00
2018-08-22T00:10:00.149Z,0.00
2018-08-22T00:10:59.945Z,0.00
2018-08-22T00:11:59.943Z,0.00
2018-08-22T00:13:00.162Z,0.00
2018-08-22T00:13:59.950Z,0.00
2018-08-22T00:15:00.217Z,0.00
2018-08-22T00:15:59.956Z,0.00
2018-08-22T00:16:59.974Z,0.00
2018-08-22T00:17:59.965Z,0.00
2018-08-22T00:19:00.198Z,0.00
2018-08-22T00:19:59.971Z,0.00
2018-08-22T00:21:00.188Z,0.00
2018-08-22T00:21:59.979Z,0.00
2018-08-22T00:22:59.997Z,0.00
2018-08-22T00:23:59.990Z,0.00
2018-08-22T00:25:00.207Z,0.00
2018-08-22T00:26:00.225Z,0.00
2018-08-22T00:27:00.014Z,0.00
2018-08-22T00:28:00.018Z,0.00
2018-08-22T00:29:00.020Z,0.00
2018-08-22T00:30:00.007Z,0.00
2018-08-22T00:31:00.013Z,0.00
2018-08-22T00:32:00.231Z,0.00
2018-08-22T00:33:00.021Z,0.00
2018-08-22T00:34:00.242Z,0.00
2018-08-22T00:35:00.029Z,0.00
2018-08-22T00:36:00.031Z,0.00
2018-08-22T00:37:00.046Z,0.00
2018-08-22T00:38:00.038Z,0.00
2018-08-22T00:39:00.062Z,0.00
2018-08-22T00:40:00.063Z,0.00
2018-08-22T00:41:00.049Z,0.00
2018-08-22T00:42:00.055Z,0.00
2018-08-22T00:43:00.060Z,0.00
2018-08-22T00:44:00.084Z,0.00
2018-08-22T00:45:00.078Z,0.00
2018-08-22T00:46:00.076Z,0.00
2018-08-22T00:47:00.070Z,0.00
2018-08-22T00:48:00.085Z,0.00
2018-08-22T00:49:00.075Z,0.00
2018-08-22T00:50:00.093Z,0.00
2018-08-22T00:51:00.287Z,0.00
2018-08-22T00:52:00.103Z,0.00
2018-08-22T00:53:00.092Z,0.00
2018-08-22T00:54:00.092Z,0.00
2018-08-22T00:55:00.097Z,0.00
2018-08-22T00:56:00.103Z,0.00
2018-08-22T00:57:00.107Z,0.00
2018-08-22T00:58:00.120Z,0.00
2018-08-22T00:59:00.123Z,0.00
2018-08-22T01:00:00.330Z,0.00
2018-08-22T01:01:00.118Z,0.00
2018-08-22T01:02:00.120Z,0.00
2018-08-22T01:03:00.328Z,0.00
2018-08-22T01:04:00.341Z,0.00
2018-08-22T01:05:00.334Z,0.00
2018-08-22T01:06:00.145Z,0.00
2018-08-22T01:07:00.362Z,0.00
2018-08-22T01:08:00.144Z,0.00
2018-08-22T01:09:00.144Z,0.00
2018-08-22T01:10:00.150Z,0.00
2018-08-22T01:11:00.154Z,0.00
2018-08-22T01:12:00.158Z,0.00
2018-08-22T01:13:00.158Z,0.00
2018-08-22T01:14:00.168Z,0.00
2018-08-22T01:15:00.166Z,0.00
2018-08-22T01:16:00.171Z,0.00
2018-08-22T01:17:00.372Z,0.00
2018-08-22T01:18:00.179Z,0.00
2018-08-22T01:19:00.391Z,0.00
2018-08-22T01:20:00.384Z,0.00
2018-08-22T01:21:00.386Z,0.00
2018-08-22T01:22:00.189Z,0.00
2018-08-22T01:23:00.194Z,0.00
2018-08-22T01:24:00.397Z,0.00
2018-08-22T01:25:00.214Z,0.00
2018-08-22T01:26:00.406Z,0.00
2018-08-22T01:27:00.206Z,0.00
2018-08-22T01:28:00.211Z,0.00
2018-08-22T01:29:00.225Z,0.00
2018-08-22T01:30:00.217Z,0.00
2018-08-22T01:31:00.222Z,0.00
2018-08-22T01:32:00.225Z,0.00
2018-08-22T01:33:00.228Z,0.00
2018-08-22T01:34:00.443Z,0.00
2018-08-22T01:35:00.238Z,0.00
2018-08-22T01:36:00.254Z,0.00
2018-08-22T01:37:00.442Z,0.00
2018-08-22T01:38:00.269Z,0.00
2018-08-22T01:39:00.263Z,0.00
2018-08-22T01:40:00.453Z,0.00
2018-08-22T01:41:00.455Z,0.00
2018-08-22T01:42:00.461Z,0.00
2018-08-22T01:43:00.275Z,0.00
2018-08-22T01:44:00.276Z,0.00
2018-08-22T01:45:00.470Z,0.00
2018-08-22T01:46:00.285Z,0.00
2018-08-22T01:47:00.288Z,0.00
2018-08-22T01:48:00.501Z,0.00
2018-08-22T01:49:00.283Z,0.00
2018-08-22T01:50:00.486Z,0.00
2018-08-22T01:51:00.294Z,0.00
2018-08-22T01:52:00.305Z,0.00
2018-08-22T01:53:00.324Z,0.00
2018-08-22T01:54:00.301Z,0.00
2018-08-22T01:55:00.316Z,0.00
2018-08-22T01:56:00.316Z,0.00
2018-08-22T01:57:00.310Z,0.00
2018-08-22T01:58:00.311Z,0.00
2018-08-22T01:59:00.315Z,0.00
2018-08-22T02:00:00.320Z,0.00
2018-08-22T02:01:00.324Z,0.00
2018-08-22T02:02:00.327Z,0.00
2018-08-22T02:03:00.338Z,0.00
2018-08-22T02:04:00.334Z,0.00
2018-08-22T02:05:00.535Z,0.00
2018-08-22T02:06:00.540Z,0.00
2018-08-22T02:07:00.357Z,0.00
2018-08-22T02:08:00.344Z,0.00
2018-08-22T02:09:00.348Z,0.00
2018-08-22T02:10:00.351Z,0.00
2018-08-22T02:11:00.352Z,0.00
2018-08-22T02:12:00.358Z,0.00
2018-08-22T02:13:00.372Z,0.00
2018-08-22T02:14:00.564Z,0.00
2018-08-22T02:15:00.589Z,0.00
2018-08-22T02:16:00.369Z,0.00
2018-08-22T02:17:00.372Z,0.00
2018-08-22T02:18:00.577Z,0.00
2018-08-22T02:19:00.390Z,0.00
2018-08-22T02:20:00.382Z,0.00
2018-08-22T02:21:00.394Z,0.00
2018-08-22T02:22:00.387Z,0.00
2018-08-22T02:23:00.400Z,0.00
2018-08-22T02:24:00.403Z,0.00
2018-08-22T02:25:00.418Z,0.00
2018-08-22T02:26:00.402Z,0.00
2018-08-22T02:27:00.421Z,0.00
2018-08-22T02:28:00.610Z,0.00
2018-08-22T02:29:00.409Z,0.00
2018-08-22T02:30:00.615Z,0.00
2018-08-22T02:31:00.619Z,0.00
2018-08-22T02:32:00.420Z,0.00
2018-08-22T02:33:00.623Z,0.00
2018-08-22T02:34:00.426Z,0.00
2018-08-22T02:35:00.428Z,0.00
2018-08-22T02:36:00.429Z,0.00
2018-08-22T02:37:00.435Z,0.00
2018-08-22T02:38:00.436Z,0.00
2018-08-22T02:39:00.449Z,0.00
2018-08-22T02:40:00.441Z,0.00
2018-08-22T02:41:00.444Z,0.00
2018-08-22T02:42:00.461Z,0.00
2018-08-22T02:43:00.653Z,0.00
2018-08-22T02:44:00.467Z,0.00
2018-08-22T02:45:00.457Z,0.00
2018-08-22T02:46:00.461Z,0.00
2018-08-22T02:47:00.665Z,0.00
2018-08-22T02:48:00.677Z,0.00
2018-08-22T02:49:00.467Z,0.00
2018-08-22T02:50:00.470Z,0.00
2018-08-22T02:51:00.677Z,0.00
2018-08-22T02:52:00.689Z,0.00
2018-08-22T02:53:00.478Z,0.00
2018-08-22T02:54:00.495Z,0.00
2018-08-22T02:55:00.484Z,0.00
2018-08-22T02:56:00.492Z,0.00
2018-08-22T02:57:00.512Z,0.00
2018-08-22T02:58:00.512Z,0.00
2018-08-22T02:59:00.507Z,0.00
2018-08-22T03:00:00.501Z,0.00
2018-08-22T03:01:00.516Z,0.00
2018-08-22T03:02:00.514Z,0.00
2018-08-22T03:03:00.718Z,0.00
2018-08-22T03:04:00.511Z,0.00
2018-08-22T03:05:00.538Z,0.00
2018-08-22T03:06:00.514Z,0.00
2018-08-22T03:07:00.721Z,0.00
2018-08-22T03:08:00.728Z,0.00
2018-08-22T03:09:00.533Z,0.00
2018-08-22T03:10:00.530Z,0.00
2018-08-22T03:11:00.731Z,0.00
2018-08-22T03:12:00.532Z,0.00
2018-08-22T03:13:00.738Z,0.00
2018-08-22T03:14:00.539Z,0.00
2018-08-22T03:15:00.556Z,0.00
2018-08-22T03:16:00.546Z,0.00
2018-08-22T03:17:00.556Z,0.00
2018-08-22T03:18:00.561Z,0.00
2018-08-22T03:19:00.565Z,0.00
2018-08-22T03:20:00.558Z,0.00
2018-08-22T03:21:00.579Z,0.00
2018-08-22T03:22:00.561Z,0.00
2018-08-22T03:23:00.585Z,0.00
2018-08-22T03:24:00.569Z,0.00
2018-08-22T03:25:00.782Z,0.00
2018-08-22T03:26:00.806Z,0.00
2018-08-22T03:27:00.779Z,0.00
2018-08-22T03:28:00.577Z,0.00
2018-08-22T03:29:00.594Z,0.00
2018-08-22T03:30:00.618Z,0.00
2018-08-22T03:31:00.790Z,0.00
2018-08-22T03:32:00.587Z,0.00
2018-08-22T03:33:00.794Z,0.00
2018-08-22T03:34:00.809Z,0.00
2018-08-22T03:35:00.602Z,0.00
2018-08-22T03:36:00.601Z,0.00
2018-08-22T03:37:00.613Z,0.00
2018-08-22T03:38:00.604Z,0.00
2018-08-22T03:39:00.617Z,0.00
2018-08-22T03:40:00.619Z,0.00
2018-08-22T03:41:00.612Z,0.00
2018-08-22T03:42:00.613Z,0.00
2018-08-22T03:43:00.616Z,0.00
2018-08-22T03:44:00.618Z,0.00
2018-08-22T03:45:00.825Z,0.00
2018-08-22T03:46:00.625Z,0.00
2018-08-22T03:47:00.626Z,0.00
2018-08-22T03:48:00.628Z,0.00
2018-08-22T03:49:00.630Z,0.00
2018-08-22T03:50:00.837Z,0.00
2018-08-22T03:51:00.640Z,0.00
2018-08-22T03:52:00.639Z,0.00
2018-08-22T03:53:00.858Z,0.00
2018-08-22T03:54:00.658Z,0.00
2018-08-22T03:55:00.694Z,0.00
2018-08-22T03:56:00.667Z,0.00
2018-08-22T03:57:00.664Z,0.00
2018-08-22T03:58:00.858Z,0.00
2018-08-22T03:59:00.679Z,0.00
2018-08-22T04:00:00.661Z,0.00
2018-08-22T04:01:00.665Z,0.00
2018-08-22T04:02:00.873Z,0.00
2018-08-22T04:03:00.871Z,0.00
2018-08-22T04:04:00.684Z,0.00
2018-08-22T04:05:00.701Z,0.00
2018-08-22T04:06:00.679Z,0.00
2018-08-22T04:07:00.681Z,0.00
2018-08-22T04:08:00.686Z,0.00
2018-08-22T04:09:00.684Z,0.00
2018-08-22T04:10:00.689Z,0.00
2018-08-22T04:11:00.692Z,0.00
2018-08-22T04:12:00.709Z,0.00
2018-08-22T04:13:00.898Z,0.00
2018-08-22T04:14:00.728Z,0.00
2018-08-22T04:15:00.713Z,0.00
2018-08-22T04:16:00.717Z,0.00
2018-08-22T04:17:00.705Z,0.00
2018-08-22T04:18:00.735Z,0.00
2018-08-22T04:19:00.922Z,0.00
2018-08-22T04:20:00.930Z,0.00
2018-08-22T04:21:00.736Z,0.00
2018-08-22T04:22:00.716Z,0.00
2018-08-22T04:23:00.729Z,0.00
2018-08-22T04:24:00.725Z,0.00
2018-08-22T04:25:00.733Z,0.00
2018-08-22T04:26:00.744Z,0.00
2018-08-22T04:27:00.933Z,0.00
2018-08-22T04:28:00.755Z,0.00
2018-08-22T04:29:00.735Z,0.00
2018-08-22T04:30:00.765Z,0.00
2018-08-22T04:31:01.005Z,0.00
2018-08-22T04:32:00.958Z,0.00
2018-08-22T04:33:00.745Z,0.00
2018-08-22T04:34:00.770Z,0.00
2018-08-22T04:35:00.749Z,0.00
2018-08-22T04:36:00.764Z,0.00
2018-08-22T04:37:00.755Z,0.00
2018-08-22T04:38:00.759Z,0.00
2018-08-22T04:39:00.760Z,0.00
2018-08-22T04:40:00.762Z,0.00
2018-08-22T04:41:00.763Z,0.00
2018-08-22T04:42:00.766Z,0.00
2018-08-22T04:43:00.770Z,0.00
2018-08-22T04:44:00.785Z,0.00
2018-08-22T04:45:00.780Z,0.00
2018-08-22T04:46:00.777Z,0.00
2018-08-22T04:47:00.980Z,0.00
2018-08-22T04:48:00.783Z,0.00
2018-08-22T04:49:00.785Z,0.00
2018-08-22T04:50:00.788Z,0.00
2018-08-22T04:51:00.790Z,0.00
2018-08-22T04:52:00.791Z,0.00
2018-08-22T04:53:00.805Z,0.00
2018-08-22T04:54:01.000Z,0.00
2018-08-22T04:55:00.796Z,0.00
2018-08-22T04:56:00.813Z,0.00
2018-08-22T04:57:01.005Z,0.00
2018-08-22T04:58:00.809Z,0.00
2018-08-22T04:59:00.816Z,0.00
2018-08-22T05:00:00.810Z,0.00
2018-08-22T05:01:00.813Z,0.00
2018-08-22T05:02:00.824Z,0.00
2018-08-22T05:03:00.817Z,0.00
2018-08-22T05:04:00.829Z,0.00
2018-08-22T05:05:00.822Z,0.00
2018-08-22T05:06:01.046Z,0.00
2018-08-22T05:07:00.823Z,0.00
2018-08-22T05:08:00.829Z,5.63
2018-08-22T05:09:00.842Z,5.63
2018-08-22T05:10:00.833Z,0.00
2018-08-22T05:11:00.833Z,0.00
2018-08-22T05:12:00.845Z,0.00
2018-08-22T05:13:00.838Z,0.00
2018-08-22T05:14:00.840Z,0.00
2018-08-22T05:15:00.847Z,0.00
2018-08-22T05:16:01.052Z,0.00
2018-08-22T05:17:00.857Z,0.00
2018-08-22T05:18:00.848Z,0.00
2018-08-22T05:19:00.863Z,0.00
2018-08-22T05:20:00.855Z,0.00
2018-08-22T05:21:00.857Z,0.00
2018-08-22T05:22:00.858Z,0.00
2018-08-22T05:23:00.875Z,0.00
2018-08-22T05:24:00.865Z,0.00
2018-08-22T05:25:00.881Z,0.00
2018-08-22T05:26:01.091Z,0.00
2018-08-22T05:27:01.089Z,0.00
2018-08-22T05:28:00.878Z,0.00
2018-08-22T05:29:00.901Z,0.00
2018-08-22T05:30:00.925Z,0.00
2018-08-22T05:31:00.878Z,0.00
2018-08-22T05:32:01.088Z,0.00
2018-08-22T05:33:00.883Z,0.00
2018-08-22T05:34:00.885Z,0.00
2018-08-22T05:35:00.909Z,0.00
2018-08-22T05:36:00.891Z,0.00
2018-08-22T05:37:01.127Z,0.00
2018-08-22T05:38:00.922Z,5.63
2018-08-22T05:39:00.899Z,5.63
2018-08-22T05:40:01.120Z,0.00
2018-08-22T05:41:01.108Z,0.00
2018-08-22T05:42:00.927Z,0.00
2018-08-22T05:43:00.920Z,5.63
2018-08-22T05:44:00.913Z,5.63
2018-08-22T05:45:01.115Z,5.63
2018-08-22T05:46:00.913Z,5.63
2018-08-22T05:47:00.931Z,5.63
2018-08-22T05:48:00.933Z,5.63
2018-08-22T05:49:01.175Z,5.63
2018-08-22T05:50:00.925Z,5.63
2018-08-22T05:51:00.938Z,5.63
2018-08-22T05:52:00.941Z,5.63
2018-08-22T05:53:00.931Z,5.63
2018-08-22T05:54:00.945Z,5.63
2018-08-22T05:55:00.938Z,5.63
2018-08-22T05:56:00.938Z,5.63
2018-08-22T05:57:00.944Z,5.63
2018-08-22T05:58:00.958Z,5.63
2018-08-22T05:59:00.948Z,5.63
2018-08-22T06:00:01.152Z,5.63
2018-08-22T06:01:00.950Z,5.63
2018-08-22T06:02:00.956Z,5.63
2018-08-22T06:03:00.966Z,5.63
2018-08-22T06:04:00.963Z,5.63
2018-08-22T06:05:00.965Z,5.63
2018-08-22T06:06:00.965Z,5.63
2018-08-22T06:07:00.984Z,5.63
2018-08-22T06:08:01.176Z,5.63
2018-08-22T06:09:01.017Z,5.63
2018-08-22T06:10:00.979Z,5.63
2018-08-22T06:11:00.993Z,5.63
2018-08-22T06:12:00.991Z,5.63
2018-08-22T06:13:00.984Z,5.63
2018-08-22T06:14:00.986Z,5.63
2018-08-22T06:15:00.992Z,5.63
2018-08-22T06:16:01.004Z,5.63
2018-08-22T06:17:01.213Z,5.63
2018-08-22T06:18:01.012Z,5.63
2018-08-22T06:19:01.014Z,5.63
2018-08-22T06:20:01.031Z,5.63
2018-08-22T06:21:01.210Z,5.63
2018-08-22T06:22:01.251Z,5.63
2018-08-22T06:23:01.017Z,5.63
2018-08-22T06:24:01.029Z,5.63
2018-08-22T06:25:01.029Z,5.63
2018-08-22T06:26:01.022Z,5.63
2018-08-22T06:27:01.059Z,5.63
2018-08-22T06:28:01.037Z,5.63
2018-08-22T06:29:01.032Z,5.63
2018-08-22T06:30:01.036Z,5.63
2018-08-22T06:31:01.255Z,5.63
2018-08-22T06:32:01.054Z,5.63
2018-08-22T06:33:01.052Z,11.25
2018-08-22T06:34:01.046Z,11.25
2018-08-22T06:35:01.049Z,11.25
2018-08-22T06:36:01.068Z,11.25
2018-08-22T06:37:01.066Z,11.25
2018-08-22T06:38:01.059Z,11.25
2018-08-22T06:39:01.061Z,11.25
2018-08-22T06:40:01.074Z,11.25
2018-08-22T06:41:01.081Z,11.25
2018-08-22T06:42:01.286Z,16.88
2018-08-22T06:43:01.089Z,22.50
2018-08-22T06:44:01.090Z,45.00
2018-08-22T06:45:01.284Z,50.63
2018-08-22T06:46:01.087Z,56.25
2018-08-22T06:47:01.092Z,78.75
2018-08-22T06:48:01.099Z,56.25
2018-08-22T06:49:01.096Z,22.50
2018-08-22T06:50:01.097Z,95.63
2018-08-22T06:51:01.101Z,241.88
2018-08-22T06:52:01.102Z,236.25
2018-08-22T06:53:01.106Z,213.75
2018-08-22T06:54:01.108Z,168.75
2018-08-22T06:55:01.315Z,101.25
2018-08-22T06:56:01.118Z,90.00
2018-08-22T06:57:01.142Z,84.38
2018-08-22T06:58:01.124Z,33.75
2018-08-22T06:59:01.128Z,33.75
2018-08-22T07:00:01.336Z,33.75
2018-08-22T07:01:01.136Z,33.75
2018-08-22T07:02:01.143Z,28.13
2018-08-22T07:03:01.348Z,56.25
2018-08-22T07:04:01.349Z,78.75
2018-08-22T07:05:01.358Z,28.13
2018-08-22T07:06:01.154Z,22.50
2018-08-22T07:07:01.360Z,28.13
2018-08-22T07:08:01.211Z,50.63
2018-08-22T07:09:01.163Z,61.88
2018-08-22T07:10:01.374Z,28.13
2018-08-22T07:11:01.172Z,22.50
2018-08-22T07:12:01.378Z,33.75
2018-08-22T07:13:01.180Z,28.13
2018-08-22T07:14:01.255Z,129.38
2018-08-22T07:15:01.188Z,219.38
2018-08-22T07:16:01.195Z,320.63
2018-08-22T07:17:01.194Z,241.88
2018-08-22T07:18:01.222Z,56.25
2018-08-22T07:19:01.205Z,140.63
2018-08-22T07:20:01.206Z,157.50
2018-08-22T07:21:01.275Z,45.00
2018-08-22T07:22:01.418Z,33.75
2018-08-22T07:23:01.222Z,61.88
2018-08-22T07:24:01.222Z,56.25
2018-08-22T07:25:01.231Z,28.13
2018-08-22T07:26:01.435Z,33.75
2018-08-22T07:27:01.438Z,45.00
2018-08-22T07:28:01.452Z,28.13
2018-08-22T07:29:01.259Z,28.13
2018-08-22T07:30:01.586Z,28.13
2018-08-22T07:31:01.266Z,28.13
2018-08-22T07:32:01.458Z,33.75
2018-08-22T07:33:01.462Z,39.38
2018-08-22T07:34:01.291Z,140.63
2018-08-22T07:35:01.272Z,67.50
2018-08-22T07:36:01.289Z,28.13
2018-08-22T07:37:01.291Z,28.13
2018-08-22T07:38:01.498Z,28.13
2018-08-22T07:39:01.287Z,28.13
2018-08-22T07:40:01.293Z,33.75
2018-08-22T07:41:01.309Z,33.75
2018-08-22T07:42:01.511Z,78.75
2018-08-22T07:43:01.316Z,258.75
2018-08-22T07:44:01.318Z,135.00
2018-08-22T07:45:01.525Z,45.00
2018-08-22T07:46:01.331Z,39.38
2018-08-22T07:47:01.585Z,33.75
2018-08-22T07:48:01.530Z,33.75
2018-08-22T07:49:01.545Z,28.13
2018-08-22T07:50:01.334Z,28.13
2018-08-22T07:51:01.343Z,28.13
2018-08-22T07:52:01.558Z,28.13
2018-08-22T07:53:01.360Z,33.75
2018-08-22T07:54:01.351Z,33.75
2018-08-22T07:55:01.371Z,61.88
2018-08-22T07:56:01.376Z,56.25
2018-08-22T07:57:01.391Z,39.38
2018-08-22T07:58:01.386Z,39.38
2018-08-22T07:59:01.376Z,39.38
2018-08-22T08:00:01.411Z,39.38
2018-08-22T08:01:01.394Z,39.38
2018-08-22T08:02:01.687Z,33.75
2018-08-22T08:03:01.412Z,39.38
2018-08-22T08:04:01.425Z,45.00
2018-08-22T08:05:01.402Z,73.13
2018-08-22T08:06:01.409Z,56.25
2018-08-22T08:07:01.665Z,56.25
2018-08-22T08:08:01.430Z,101.25
2018-08-22T08:09:01.434Z,151.88
2018-08-22T08:10:01.436Z,56.25
2018-08-22T08:11:01.726Z,50.63
2018-08-22T08:12:01.468Z,56.25
2018-08-22T08:13:01.452Z,174.38
2018-08-22T08:14:01.458Z,180.00
2018-08-22T08:15:01.482Z,84.38
2018-08-22T08:16:01.659Z,208.13
2018-08-22T08:17:01.531Z,365.63
2018-08-22T08:18:01.465Z,174.38
2018-08-22T08:19:01.483Z,416.25
2018-08-22T08:20:01.491Z,123.75
2018-08-22T08:21:01.483Z,112.50
2018-08-22T08:22:01.518Z,84.38
2018-08-22T08:23:01.499Z,146.25
2018-08-22T08:24:01.702Z,95.63
2018-08-22T08:25:01.711Z,163.13
2018-08-22T08:26:01.736Z,241.88
2018-08-22T08:27:01.530Z,146.25
2018-08-22T08:28:01.724Z,219.38
2018-08-22T08:29:01.540Z,174.38
2018-08-22T08:30:01.750Z,174.38
2018-08-22T08:31:01.564Z,84.38
2018-08-22T08:32:01.548Z,118.13
2018-08-22T08:33:01.572Z,106.88
2018-08-22T08:34:01.559Z,56.25
2018-08-22T08:35:01.562Z,56.25
2018-08-22T08:36:01.579Z,56.25
2018-08-22T08:37:01.575Z,50.63
2018-08-22T08:38:01.665Z,50.63
2018-08-22T08:39:01.609Z,61.88
2018-08-22T08:40:01.811Z,61.88
2018-08-22T08:41:01.611Z,146.25
2018-08-22T08:42:01.611Z,67.50
2018-08-22T08:43:01.824Z,56.25
2018-08-22T08:44:01.628Z,56.25
2018-08-22T08:45:01.839Z,61.88
2018-08-22T08:46:01.632Z,90.00
2018-08-22T08:47:01.648Z,191.25
2018-08-22T08:48:01.844Z,326.25
2018-08-22T08:49:01.674Z,731.25
2018-08-22T08:50:01.656Z,1068.75
2018-08-22T08:51:01.673Z,416.25
2018-08-22T08:52:01.679Z,241.88
2018-08-22T08:53:01.875Z,213.75
2018-08-22T08:54:01.676Z,129.38
2018-08-22T08:55:01.683Z,78.75
2018-08-22T08:56:01.694Z,61.88
2018-08-22T08:57:01.708Z,56.25
2018-08-22T08:58:01.707Z,50.63
2018-08-22T08:59:01.722Z,45.00
2018-08-22T09:00:01.719Z,45.00
2018-08-22T09:01:01.943Z,39.38
2018-08-22T09:02:01.787Z,39.38
2018-08-22T09:03:01.738Z,39.38
2018-08-22T09:04:01.802Z,39.38
2018-08-22T09:05:01.757Z,33.75
2018-08-22T09:06:01.756Z,28.13
2018-08-22T09:07:01.985Z,33.75
2018-08-22T09:08:01.966Z,28.13
2018-08-22T09:09:01.781Z,33.75
2018-08-22T09:10:01.793Z,33.75
2018-08-22T09:11:01.993Z,33.75
2018-08-22T09:12:01.790Z,28.13
2018-08-22T09:13:01.805Z,33.75
2018-08-22T09:14:01.828Z,28.13
2018-08-22T09:15:02.025Z,28.13
2018-08-22T09:16:01.828Z,28.13
2018-08-22T09:17:01.815Z,28.13
2018-08-22T09:18:01.833Z,28.13
2018-08-22T09:19:01.862Z,28.13
2018-08-22T09:20:02.069Z,28.13
2018-08-22T09:21:01.872Z,28.13
2018-08-22T09:22:01.849Z,28.13
2018-08-22T09:23:01.852Z,28.13
2018-08-22T09:24:01.923Z,28.13
2018-08-22T09:25:01.866Z,28.13
2018-08-22T09:26:01.868Z,22.50
2018-08-22T09:27:02.078Z,22.50
2018-08-22T09:28:02.111Z,22.50
2018-08-22T09:29:02.087Z,22.50
2018-08-22T09:30:01.934Z,22.50
2018-08-22T09:31:02.099Z,22.50
2018-08-22T09:32:01.903Z,22.50
2018-08-22T09:33:01.918Z,22.50
2018-08-22T09:34:01.911Z,22.50
2018-08-22T09:35:02.119Z,22.50
2018-08-22T09:36:01.922Z,22.50
2018-08-22T09:37:02.153Z,22.50
2018-08-22T09:38:01.946Z,22.50
2018-08-22T09:39:01.941Z,22.50
2018-08-22T09:40:02.033Z,22.50
2018-08-22T09:41:01.959Z,22.50
2018-08-22T09:42:01.964Z,22.50
2018-08-22T09:43:01.961Z,22.50
2018-08-22T09:44:01.964Z,22.50
2018-08-22T09:45:01.971Z,22.50
2018-08-22T09:46:01.975Z,22.50
2018-08-22T09:47:01.982Z,22.50
2018-08-22T09:48:01.997Z,22.50
2018-08-22T09:49:02.209Z,22.50
2018-08-22T09:50:02.000Z,22.50
2018-08-22T09:51:02.005Z,22.50
2018-08-22T09:52:02.009Z,22.50
2018-08-22T09:53:02.012Z,22.50
2018-08-22T09:54:02.032Z,22.50
2018-08-22T09:55:02.035Z,22.50
2018-08-22T09:56:02.041Z,22.50
2018-08-22T09:57:02.051Z,22.50
2018-08-22T09:58:02.090Z,22.50
2018-08-22T09:59:02.057Z,22.50
2018-08-22T10:00:02.116Z,22.50
2018-08-22T10:01:02.057Z,22.50
2018-08-22T10:02:02.064Z,22.50
2018-08-22T10:03:02.071Z,22.50
2018-08-22T10:04:02.075Z,22.50
2018-08-22T10:05:02.079Z,22.50
2018-08-22T10:06:02.088Z,22.50
2018-08-22T10:07:02.351Z,22.50
2018-08-22T10:08:02.105Z,22.50
2018-08-22T10:09:02.097Z,16.88
2018-08-22T10:10:02.222Z,22.50
2018-08-22T10:11:02.123Z,22.50
2018-08-22T10:12:02.130Z,22.50
2018-08-22T10:13:02.134Z,22.50
2018-08-22T10:14:02.129Z,16.88
2018-08-22T10:15:02.133Z,16.88
2018-08-22T10:16:02.159Z,16.88
2018-08-22T10:17:02.145Z,16.88
2018-08-22T10:18:02.151Z,16.88
2018-08-22T10:19:02.425Z,16.88
2018-08-22T10:20:02.160Z,16.88
2018-08-22T10:21:02.167Z,16.88
2018-08-22T10:22:02.193Z,16.88
2018-08-22T10:23:02.188Z,16.88
2018-08-22T10:24:02.203Z,16.88
2018-08-22T10:25:02.201Z,16.88
2018-08-22T10:26:02.207Z,16.88
2018-08-22T10:27:02.468Z,16.88
2018-08-22T10:28:02.204Z,16.88
2018-08-22T10:29:02.243Z,16.88
2018-08-22T10:30:02.243Z,16.88
2018-08-22T10:31:02.231Z,16.88
2018-08-22T10:32:02.231Z,16.88
2018-08-22T10:33:02.470Z,16.88
2018-08-22T10:34:02.250Z,16.88
2018-08-22T10:35:02.273Z,16.88
2018-08-22T10:36:02.261Z,16.88
2018-08-22T10:37:02.473Z,16.88
2018-08-22T10:38:02.262Z,16.88
2018-08-22T10:39:02.295Z,16.88
2018-08-22T10:40:02.277Z,16.88
2018-08-22T10:41:02.290Z,16.88
2018-08-22T10:42:02.283Z,16.88
2018-08-22T10:43:02.315Z,16.88
2018-08-22T10:44:02.297Z,16.88
2018-08-22T10:45:02.330Z,16.88
2018-08-22T10:46:02.321Z,16.88
2018-08-22T10:47:02.525Z,16.88
2018-08-22T10:48:02.371Z,16.88
2018-08-22T10:49:02.327Z,16.88
2018-08-22T10:50:02.341Z,16.88
2018-08-22T10:51:02.539Z,16.88
2018-08-22T10:52:02.352Z,16.88
2018-08-22T10:53:02.347Z,16.88
2018-08-22T10:54:02.418Z,16.88
2018-08-22T10:55:02.572Z,16.88
2018-08-22T10:56:02.377Z,16.88
2018-08-22T10:57:02.382Z,16.88
2018-08-22T10:58:02.386Z,16.88
2018-08-22T10:59:02.382Z,16.88
2018-08-22T11:00:02.389Z,16.88
2018-08-22T11:01:02.399Z,16.88
2018-08-22T11:02:02.487Z,16.88
2018-08-22T11:03:02.618Z,16.88
2018-08-22T11:04:02.428Z,16.88
2018-08-22T11:05:02.619Z,16.88
2018-08-22T11:06:02.432Z,16.88
2018-08-22T11:07:02.442Z,16.88
2018-08-22T11:08:02.435Z,16.88
2018-08-22T11:09:02.643Z,16.88
2018-08-22T11:10:02.540Z,16.88
2018-08-22T11:11:02.654Z,16.88
2018-08-22T11:12:02.467Z,16.88
2018-08-22T11:13:02.490Z,16.88
2018-08-22T11:14:02.489Z,16.88
2018-08-22T11:15:02.484Z,16.88
2018-08-22T11:16:02.532Z,16.88
2018-08-22T11:17:02.485Z,16.88
2018-08-22T11:18:02.492Z,16.88
2018-08-22T11:19:02.498Z,16.88
2018-08-22T11:20:02.501Z,16.88
2018-08-22T11:21:02.521Z,16.88
2018-08-22T11:22:02.523Z,16.88
2018-08-22T11:23:02.542Z,16.88
2018-08-22T11:24:02.548Z,16.88
2018-08-22T11:25:02.543Z,16.88
2018-08-22T11:26:02.537Z,16.88
2018-08-22T11:27:02.545Z,16.88
2018-08-22T11:28:02.762Z,16.88
2018-08-22T11:29:02.553Z,16.88
2018-08-22T11:30:02.573Z,16.88
2018-08-22T11:31:02.568Z,16.88
2018-08-22T11:32:02.581Z,16.88
2018-08-22T11:33:02.602Z,16.88
2018-08-22T11:34:02.614Z,16.88
2018-08-22T11:35:02.600Z,16.88
2018-08-22T11:36:02.797Z,16.88
2018-08-22T11:37:02.600Z,16.88
2018-08-22T11:38:02.617Z,16.88
2018-08-22T11:39:02.814Z,11.25
2018-08-22T11:40:02.821Z,11.25
2018-08-22T11:41:02.851Z,11.25
2018-08-22T11:42:02.629Z,11.25
2018-08-22T11:43:02.635Z,11.25
2018-08-22T11:44:02.846Z,11.25
2018-08-22T11:45:02.661Z,11.25
2018-08-22T11:46:02.663Z,11.25
2018-08-22T11:47:02.663Z,11.25
2018-08-22T11:48:02.663Z,11.25
2018-08-22T11:49:02.874Z,11.25
2018-08-22T11:50:02.677Z,11.25
2018-08-22T11:51:02.695Z,11.25
2018-08-22T11:52:02.690Z,11.25
2018-08-22T11:53:02.700Z,11.25
2018-08-22T11:54:02.699Z,11.25
2018-08-22T11:55:02.707Z,11.25
2018-08-22T11:56:02.921Z,11.25
2018-08-22T11:57:02.718Z,11.25
2018-08-22T11:58:02.723Z,11.25
2018-08-22T11:59:02.731Z,11.25
2018-08-22T12:00:02.940Z,11.25
2018-08-22T12:01:02.741Z,11.25
2018-08-22T12:02:02.989Z,11.25
2018-08-22T12:03:02.752Z,11.25
2018-08-22T12:04:02.759Z,11.25
2018-08-22T12:05:02.776Z,11.25
2018-08-22T12:06:02.972Z,11.25
2018-08-22T12:07:02.785Z,11.25
2018-08-22T12:08:02.794Z,11.25
2018-08-22T12:09:02.791Z,11.25
2018-08-22T12:10:02.795Z,11.25
2018-08-22T12:11:02.801Z,11.25
2018-08-22T12:12:02.810Z,11.25
2018-08-22T12:13:02.815Z,11.25
2018-08-22T12:14:02.831Z,11.25
2018-08-22T12:15:02.842Z,11.25
2018-08-22T12:16:02.850Z,11.25
2018-08-22T12:17:02.839Z,11.25
2018-08-22T12:18:02.854Z,11.25
2018-08-22T12:19:02.862Z,11.25
2018-08-22T12:20:02.869Z,11.25
2018-08-22T12:21:02.860Z,11.25
2018-08-22T12:22:02.871Z,11.25
2018-08-22T12:23:02.922Z,11.25
2018-08-22T12:24:02.882Z,11.25
2018-08-22T12:25:02.886Z,11.25
2018-08-22T12:26:03.093Z,11.25
2018-08-22T12:27:02.921Z,11.25
2018-08-22T12:28:02.901Z,11.25
2018-08-22T12:29:02.913Z,11.25
2018-08-22T12:30:02.917Z,11.25
2018-08-22T12:31:03.176Z,11.25
2018-08-22T12:32:02.950Z,11.25
2018-08-22T12:33:02.957Z,11.25
2018-08-22T12:34:03.161Z,11.25
2018-08-22T12:35:02.957Z,11.25
2018-08-22T12:36:02.967Z,11.25
2018-08-22T12:37:02.954Z,11.25
2018-08-22T12:38:02.980Z,11.25
2018-08-22T12:39:02.969Z,11.25
2018-08-22T12:40:03.181Z,11.25
2018-08-22T12:41:02.980Z,11.25
2018-08-22T12:42:03.009Z,11.25
2018-08-22T12:43:02.992Z,11.25
2018-08-22T12:44:03.002Z,11.25
2018-08-22T12:45:03.001Z,11.25
2018-08-22T12:46:03.021Z,11.25
2018-08-22T12:47:03.220Z,11.25
2018-08-22T12:48:03.032Z,11.25
2018-08-22T12:49:03.041Z,11.25
2018-08-22T12:50:03.045Z,11.25
2018-08-22T12:51:03.040Z,11.25
2018-08-22T12:52:03.057Z,11.25
2018-08-22T12:53:03.048Z,11.25
2018-08-22T12:54:03.072Z,11.25
2018-08-22T12:55:03.265Z,11.25
2018-08-22T12:56:03.086Z,11.25
2018-08-22T12:57:03.283Z,11.25
2018-08-22T12:58:03.284Z,11.25
2018-08-22T12:59:03.289Z,11.25
2018-08-22T13:00:03.106Z,11.25
2018-08-22T13:01:03.098Z,11.25
2018-08-22T13:02:03.109Z,11.25
2018-08-22T13:03:03.138Z,11.25
2018-08-22T13:04:03.127Z,11.25